Aeneas, Washington
Current Conditions -  °F | °C
As of 3:53 AM on Thursday 27 Nov 2014 (Local Time) from KOMK Reporting Station
Scattered Clouds Scattered Clouds  
Wind Chill: -4°   Ceiling: Unl
Heat Index:   Visibility: 10mi
Dew Point:   Wind: 20mph
Humidity: 92%   Direction: 210°SSW
Pressure: 29.82"   Gusts: 25mph
Location:  48.6708°N, 119.278°W
Report Text: KOMK 271153Z AUTO 21017G22KT 10SM FEW003 SCT021 02/01 A2982 RMK AO2 SLP109 T00170006 10017 20011 55018
Loading
Personal Weather Stations






























Interactive Weather Map New forecast layout! Learn more

10-Day Weather Forecast

Advertisements
Track Severe Weather on mobile